sensor_id;sensor_type;location;lat;lon;timestamp;temperature;humidity
55365;DHT22;41245;45.384;20.390;2022-09-28T00:03:42;384.30;128.00
55365;DHT22;41245;45.384;20.390;2022-09-28T00:06:10;384.30;128.00
55365;DHT22;41245;45.384;20.390;2022-09-28T00:08:37;384.20;128.00
55365;DHT22;41245;45.384;20.390;2022-09-28T00:11:05;384.30;128.00
55365;DHT22;41245;45.384;20.390;2022-09-28T00:13:31;384.20;128.00
55365;DHT22;41245;45.384;20.390;2022-09-28T00:16:12;384.20;128.00
55365;DHT22;41245;45.384;20.390;2022-09-28T00:18:38;384.20;128.00
55365;DHT22;41245;45.384;20.390;2022-09-28T00:21:07;384.20;128.00
55365;DHT22;41245;45.384;20.390;2022-09-28T00:23:34;384.30;153.60
55365;DHT22;41245;45.384;20.390;2022-09-28T00:26:05;384.40;179.20
55365;DHT22;41245;45.384;20.390;2022-09-28T00:28:31;384.40;179.20
55365;DHT22;41245;45.384;20.390;2022-09-28T00:30:57;384.40;204.80
55365;DHT22;41245;45.384;20.390;2022-09-28T00:33:23;384.40;230.40
55365;DHT22;41245;45.384;20.390;2022-09-28T00:35:56;384.40;128.00
55365;DHT22;41245;45.384;20.390;2022-09-28T00:38:25;384.40;153.60
55365;DHT22;41245;45.384;20.390;2022-09-28T00:40:51;384.40;281.60
55365;DHT22;41245;45.384;20.390;2022-09-28T00:43:22;384.40;256.00
55365;DHT22;41245;45.384;20.390;2022-09-28T00:46:03;384.40;230.40
55365;DHT22;41245;45.384;20.390;2022-09-28T00:48:33;384.50;307.20
55365;DHT22;41245;45.384;20.390;2022-09-28T00:51:05;384.40;358.40
55365;DHT22;41245;45.384;20.390;2022-09-28T00:53:34;384.40;358.40
55365;DHT22;41245;45.384;20.390;2022-09-28T00:56:07;384.40;384.00
55365;DHT22;41245;45.384;20.390;2022-09-28T00:58:38;384.40;281.60
55365;DHT22;41245;45.384;20.390;2022-09-28T01:01:06;384.40;281.60
55365;DHT22;41245;45.384;20.390;2022-09-28T01:03:33;384.30;307.20
55365;DHT22;41245;45.384;20.390;2022-09-28T01:06:02;384.30;256.00
55365;DHT22;41245;45.384;20.390;2022-09-28T01:08:29;384.30;307.20
55365;DHT22;41245;45.384;20.390;2022-09-28T01:10:59;384.30;256.00
55365;DHT22;41245;45.384;20.390;2022-09-28T01:13:25;384.30;307.20
55365;DHT22;41245;45.384;20.390;2022-09-28T01:21:21;384.40;256.00
55365;DHT22;41245;45.384;20.390;2022-09-28T01:35:33;384.40;204.80
55365;DHT22;41245;45.384;20.390;2022-09-28T01:38:13;384.50;204.80
55365;DHT22;41245;45.384;20.390;2022-09-28T01:40:42;384.50;153.60
55365;DHT22;41245;45.384;20.390;2022-09-28T01:43:18;384.40;153.60
55365;DHT22;41245;45.384;20.390;2022-09-28T01:46:36;384.60;256.00
55365;DHT22;41245;45.384;20.390;2022-09-28T01:49:24;384.50;179.20
55365;DHT22;41245;45.384;20.390;2022-09-28T01:52:16;384.40;153.60
55365;DHT22;41245;45.384;20.390;2022-09-28T01:54:51;384.50;179.20
55365;DHT22;41245;45.384;20.390;2022-09-28T01:57:36;384.50;179.20
55365;DHT22;41245;45.384;20.390;2022-09-28T02:00:09;384.50;153.60
55365;DHT22;41245;45.384;20.390;2022-09-28T02:07:52;384.50;153.60
55365;DHT22;41245;45.384;20.390;2022-09-28T02:10:25;384.50;204.80
55365;DHT22;41245;45.384;20.390;2022-09-28T02:12:59;384.50;153.60
55365;DHT22;41245;45.384;20.390;2022-09-28T02:15:34;384.50;230.40
55365;DHT22;41245;45.384;20.390;2022-09-28T02:18:01;384.50;230.40
55365;DHT22;41245;45.384;20.390;2022-09-28T02:20:28;384.50;281.60
55365;DHT22;41245;45.384;20.390;2022-09-28T02:22:57;384.50;256.00
55365;DHT22;41245;45.384;20.390;2022-09-28T02:25:28;384.50;281.60
55365;DHT22;41245;45.384;20.390;2022-09-28T02:28:04;384.50;230.40
55365;DHT22;41245;45.384;20.390;2022-09-28T02:30:32;384.50;256.00
55365;DHT22;41245;45.384;20.390;2022-09-28T02:33:15;384.40;256.00
55365;DHT22;41245;45.384;20.390;2022-09-28T02:35:42;384.40;256.00
55365;DHT22;41245;45.384;20.390;2022-09-28T02:38:13;384.40;281.60
55365;DHT22;41245;45.384;20.390;2022-09-28T02:40:39;384.40;281.60
55365;DHT22;41245;45.384;20.390;2022-09-28T02:43:20;384.30;230.40
55365;DHT22;41245;45.384;20.390;2022-09-28T02:46:37;384.20;332.80
55365;DHT22;41245;45.384;20.390;2022-09-28T02:54:21;384.20;307.20
55365;DHT22;41245;45.384;20.390;2022-09-28T03:00:36;384.20;358.40
55365;DHT22;41245;45.384;20.390;2022-09-28T03:06:03;384.30;358.40
55365;DHT22;41245;45.384;20.390;2022-09-28T03:08:41;384.30;332.80
55365;DHT22;41245;45.384;20.390;2022-09-28T03:11:20;384.30;307.20
55365;DHT22;41245;45.384;20.390;2022-09-28T03:13:46;384.20;384.00
55365;DHT22;41245;45.384;20.390;2022-09-28T03:16:17;384.20;358.40
55365;DHT22;41245;45.384;20.390;2022-09-28T03:18:44;384.20;358.40
55365;DHT22;41245;45.384;20.390;2022-09-28T03:21:13;384.20;358.40
55365;DHT22;41245;45.384;20.390;2022-09-28T03:23:40;384.20;332.80
55365;DHT22;41245;45.384;20.390;2022-09-28T03:26:13;384.20;281.60
55365;DHT22;41245;45.384;20.390;2022-09-28T03:28:39;384.20;384.00
55365;DHT22;41245;45.384;20.390;2022-09-28T03:31:05;384.20;358.40
55365;DHT22;41245;45.384;20.390;2022-09-28T03:33:30;384.20;358.40
55365;DHT22;41245;45.384;20.390;2022-09-28T03:35:56;384.20;281.60
55365;DHT22;41245;45.384;20.390;2022-09-28T03:38:22;384.20;384.00
55365;DHT22;41245;45.384;20.390;2022-09-28T03:41:00;384.20;358.40
55365;DHT22;41245;45.384;20.390;2022-09-28T03:43:26;384.20;409.60
55365;DHT22;41245;45.384;20.390;2022-09-28T03:45:56;384.20;512.00
55365;DHT22;41245;45.384;20.390;2022-09-28T03:48:24;384.20;588.80
55365;DHT22;41245;45.384;20.390;2022-09-28T03:50:54;384.20;460.80
55365;DHT22;41245;45.384;20.390;2022-09-28T03:53:20;384.20;409.60
55365;DHT22;41245;45.384;20.390;2022-09-28T03:55:46;384.00;384.00
55365;DHT22;41245;45.384;20.390;2022-09-28T03:58:12;384.00;435.20
55365;DHT22;41245;45.384;20.390;2022-09-28T04:00:38;384.00;460.80
55365;DHT22;41245;45.384;20.390;2022-09-28T04:03:04;384.10;460.80
55365;DHT22;41245;45.384;20.390;2022-09-28T04:05:30;384.10;435.20
55365;DHT22;41245;45.384;20.390;2022-09-28T04:07:55;384.00;614.40
55365;DHT22;41245;45.384;20.390;2022-09-28T04:10:23;384.00;588.80
55365;DHT22;41245;45.384;20.390;2022-09-28T04:12:48;384.00;588.80
55365;DHT22;41245;45.384;20.390;2022-09-28T04:15:15;384.00;512.00
55365;DHT22;41245;45.384;20.390;2022-09-28T04:17:41;384.00;512.00
55365;DHT22;41245;45.384;20.390;2022-09-28T04:20:07;384.00;563.20
55365;DHT22;41245;45.384;20.390;2022-09-28T04:22:33;384.00;614.40
55365;DHT22;41245;45.384;20.390;2022-09-28T04:25:02;384.00;537.60
55365;DHT22;41245;45.384;20.390;2022-09-28T04:27:28;384.00;588.80
55365;DHT22;41245;45.384;20.390;2022-09-28T04:30:12;384.00;588.80
55365;DHT22;41245;45.384;20.390;2022-09-28T04:32:38;359.30;588.80
55365;DHT22;41245;45.384;20.390;2022-09-28T04:35:05;359.30;435.20
55365;DHT22;41245;45.384;20.390;2022-09-28T04:37:31;359.20;460.80
55365;DHT22;41245;45.384;20.390;2022-09-28T04:39:56;359.20;358.40
55365;DHT22;41245;45.384;20.390;2022-09-28T04:42:22;359.20;409.60
55365;DHT22;41245;45.384;20.390;2022-09-28T04:44:48;359.20;435.20
55365;DHT22;41245;45.384;20.390;2022-09-28T04:47:13;359.30;486.40
55365;DHT22;41245;45.384;20.390;2022-09-28T04:49:39;359.30;384.00
55365;DHT22;41245;45.384;20.390;2022-09-28T04:52:05;384.00;409.60
55365;DHT22;41245;45.384;20.390;2022-09-28T04:54:31;384.00;435.20
55365;DHT22;41245;45.384;20.390;2022-09-28T04:56:57;384.00;563.20
55365;DHT22;41245;45.384;20.390;2022-09-28T04:59:23;384.00;588.80
55365;DHT22;41245;45.384;20.390;2022-09-28T05:01:48;384.10;537.60
55365;DHT22;41245;45.384;20.390;2022-09-28T05:04:14;384.10;563.20
55365;DHT22;41245;45.384;20.390;2022-09-28T05:06:40;384.10;512.00
55365;DHT22;41245;45.384;20.390;2022-09-28T05:09:06;384.10;588.80
55365;DHT22;41245;45.384;20.390;2022-09-28T05:11:33;384.10;460.80
55365;DHT22;41245;45.384;20.390;2022-09-28T05:13:59;384.10;486.40
55365;DHT22;41245;45.384;20.390;2022-09-28T05:16:25;384.20;588.80
55365;DHT22;41245;45.384;20.390;2022-09-28T05:18:55;384.20;128.00
55365;DHT22;41245;45.384;20.390;2022-09-28T05:21:20;384.20;128.00
55365;DHT22;41245;45.384;20.390;2022-09-28T05:23:49;384.20;128.00
55365;DHT22;41245;45.384;20.390;2022-09-28T05:26:14;384.20;128.00
55365;DHT22;41245;45.384;20.390;2022-09-28T05:28:40;384.10;128.00
55365;DHT22;41245;45.384;20.390;2022-09-28T05:31:06;384.20;128.00
55365;DHT22;41245;45.384;20.390;2022-09-28T05:33:32;384.20;128.00
55365;DHT22;41245;45.384;20.390;2022-09-28T05:35:58;384.30;128.00
55365;DHT22;41245;45.384;20.390;2022-09-28T05:38:24;384.30;128.00
55365;DHT22;41245;45.384;20.390;2022-09-28T05:40:50;384.40;128.00
55365;DHT22;41245;45.384;20.390;2022-09-28T05:43:16;384.50;128.00
55365;DHT22;41245;45.384;20.390;2022-09-28T05:45:42;384.40;128.00
55365;DHT22;41245;45.384;20.390;2022-09-28T05:48:07;384.50;128.00
55365;DHT22;41245;45.384;20.390;2022-09-28T05:50:33;384.50;128.00
55365;DHT22;41245;45.384;20.390;2022-09-28T05:53:04;384.60;128.00
55365;DHT22;41245;45.384;20.390;2022-09-28T05:55:30;384.20;128.00
55365;DHT22;41245;45.384;20.390;2022-09-28T05:58:00;384.70;128.00
55365;DHT22;41245;45.384;20.390;2022-09-28T06:00:26;384.80;128.00
55365;DHT22;41245;45.384;20.390;2022-09-28T06:02:56;384.90;128.00
55365;DHT22;41245;45.384;20.390;2022-09-28T06:05:23;409.70;128.00
55365;DHT22;41245;45.384;20.390;2022-09-28T06:07:49;409.90;128.00
55365;DHT22;41245;45.384;20.390;2022-09-28T06:10:14;409.90;128.00
55365;DHT22;41245;45.384;20.390;2022-09-28T06:12:40;409.90;128.00
55365;DHT22;41245;45.384;20.390;2022-09-28T06:15:07;410.00;128.00
55365;DHT22;41245;45.384;20.390;2022-09-28T06:17:32;410.20;128.00
55365;DHT22;41245;45.384;20.390;2022-09-28T06:19:58;410.30;128.00
55365;DHT22;41245;45.384;20.390;2022-09-28T06:22:24;410.30;128.00
55365;DHT22;41245;45.384;20.390;2022-09-28T06:24:49;410.30;128.00
55365;DHT22;41245;45.384;20.390;2022-09-28T06:27:15;410.20;128.00
55365;DHT22;41245;45.384;20.390;2022-09-28T06:29:41;410.10;128.00
55365;DHT22;41245;45.384;20.390;2022-09-28T06:32:06;410.00;128.00
55365;DHT22;41245;45.384;20.390;2022-09-28T06:34:32;410.00;128.00
55365;DHT22;41245;45.384;20.390;2022-09-28T06:36:59;409.90;128.00
55365;DHT22;41245;45.384;20.390;2022-09-28T06:39:25;410.00;128.00
55365;DHT22;41245;45.384;20.390;2022-09-28T06:41:50;410.10;128.00
55365;DHT22;41245;45.384;20.390;2022-09-28T06:44:17;410.30;128.00
55365;DHT22;41245;45.384;20.390;2022-09-28T06:46:42;410.40;128.00
55365;DHT22;41245;45.384;20.390;2022-09-28T06:49:08;410.50;128.00
55365;DHT22;41245;45.384;20.390;2022-09-28T06:51:35;435.30;128.00
55365;DHT22;41245;45.384;20.390;2022-09-28T06:54:01;435.50;128.00
55365;DHT22;41245;45.384;20.390;2022-09-28T06:56:27;435.50;128.00
55365;DHT22;41245;45.384;20.390;2022-09-28T06:58:53;435.60;128.00
55365;DHT22;41245;45.384;20.390;2022-09-28T07:01:19;435.70;128.00
55365;DHT22;41245;45.384;20.390;2022-09-28T07:03:44;435.70;128.00
55365;DHT22;41245;45.384;20.390;2022-09-28T07:06:11;435.40;128.00
55365;DHT22;41245;45.384;20.390;2022-09-28T07:08:37;435.50;128.00
55365;DHT22;41245;45.384;20.390;2022-09-28T07:11:06;435.60;128.00
55365;DHT22;41245;45.384;20.390;2022-09-28T07:13:32;435.60;128.00
55365;DHT22;41245;45.384;20.390;2022-09-28T07:15:58;435.70;128.00
55365;DHT22;41245;45.384;20.390;2022-09-28T07:18:24;435.70;128.00
55365;DHT22;41245;45.384;20.390;2022-09-28T07:20:54;435.60;128.00
55365;DHT22;41245;45.384;20.390;2022-09-28T07:23:21;435.40;128.00
55365;DHT22;41245;45.384;20.390;2022-09-28T07:25:47;435.30;128.00
55365;DHT22;41245;45.384;20.390;2022-09-28T07:28:14;435.20;128.00
55365;DHT22;41245;45.384;20.390;2022-09-28T07:30:41;435.50;128.00
55365;DHT22;41245;45.384;20.390;2022-09-28T07:33:10;435.50;128.00
55365;DHT22;41245;45.384;20.390;2022-09-28T07:35:37;435.40;128.00
55365;DHT22;41245;45.384;20.390;2022-09-28T07:38:05;410.30;128.00
55365;DHT22;41245;45.384;20.390;2022-09-28T07:40:32;410.20;128.00
55365;DHT22;41245;45.384;20.390;2022-09-28T07:43:17;410.40;128.00
55365;DHT22;41245;45.384;20.390;2022-09-28T07:45:49;435.20;128.00
55365;DHT22;41245;45.384;20.390;2022-09-28T07:48:16;435.20;128.00
55365;DHT22;41245;45.384;20.390;2022-09-28T07:50:50;435.30;128.00
55365;DHT22;41245;45.384;20.390;2022-09-28T07:53:20;435.60;128.00
55365;DHT22;41245;45.384;20.390;2022-09-28T07:56:05;435.60;128.00
55365;DHT22;41245;45.384;20.390;2022-09-28T07:58:35;435.40;128.00
55365;DHT22;41245;45.384;20.390;2022-09-28T08:01:07;435.40;128.00
55365;DHT22;41245;45.384;20.390;2022-09-28T08:03:33;435.60;128.00
55365;DHT22;41245;45.384;20.390;2022-09-28T08:06:01;435.40;128.00
55365;DHT22;41245;45.384;20.390;2022-09-28T08:08:28;435.60;128.00
55365;DHT22;41245;45.384;20.390;2022-09-28T08:10:55;435.60;128.00
55365;DHT22;41245;45.384;20.390;2022-09-28T08:13:21;435.70;128.00
55365;DHT22;41245;45.384;20.390;2022-09-28T08:15:50;435.30;128.00
55365;DHT22;41245;45.384;20.390;2022-09-28T08:18:16;435.40;128.00
55365;DHT22;41245;45.384;20.390;2022-09-28T08:20:42;435.60;128.00
55365;DHT22;41245;45.384;20.390;2022-09-28T08:23:26;435.60;128.00
55365;DHT22;41245;45.384;20.390;2022-09-28T08:25:52;436.10;128.00
55365;DHT22;41245;45.384;20.390;2022-09-28T08:28:19;461.10;128.00
55365;DHT22;41245;45.384;20.390;2022-09-28T08:30:46;461.30;128.00
55365;DHT22;41245;45.384;20.390;2022-09-28T08:33:13;461.40;128.00
55365;DHT22;41245;45.384;20.390;2022-09-28T08:35:40;486.60;128.00
55365;DHT22;41245;45.384;20.390;2022-09-28T08:38:07;486.90;128.00
55365;DHT22;41245;45.384;20.390;2022-09-28T08:40:41;486.50;128.00
55365;DHT22;41245;45.384;20.390;2022-09-28T08:46:19;486.80;128.00
55365;DHT22;41245;45.384;20.390;2022-09-28T08:48:52;486.80;128.00
55365;DHT22;41245;45.384;20.390;2022-09-28T08:51:34;486.60;128.00
55365;DHT22;41245;45.384;20.390;2022-09-28T08:56:56;486.40;128.00
55365;DHT22;41245;45.384;20.390;2022-09-28T08:59:27;461.50;128.00
55365;DHT22;41245;45.384;20.390;2022-09-28T09:02:01;461.30;128.00
55365;DHT22;41245;45.384;20.390;2022-09-28T09:04:29;461.20;128.00
55365;DHT22;41245;45.384;20.390;2022-09-28T09:12:49;461.40;128.00
55365;DHT22;41245;45.384;20.390;2022-09-28T09:21:50;461.30;128.00
55365;DHT22;41245;45.384;20.390;2022-09-28T09:23:54;461.30;128.00
55365;DHT22;41245;45.384;20.390;2022-09-28T09:26:31;461.20;128.00
55365;DHT22;41245;45.384;20.390;2022-09-28T09:29:02;461.20;128.00
55365;DHT22;41245;45.384;20.390;2022-09-28T09:37:30;461.50;128.00
55365;DHT22;41245;45.384;20.390;2022-09-28T09:43:07;461.50;128.00
55365;DHT22;41245;45.384;20.390;2022-09-28T09:48:53;461.40;128.00
55365;DHT22;41245;45.384;20.390;2022-09-28T09:51:51;461.50;128.00
55365;DHT22;41245;45.384;20.390;2022-09-28T09:54:35;461.40;128.00
55365;DHT22;41245;45.384;20.390;2022-09-28T09:57:16;461.60;128.00
55365;DHT22;41245;45.384;20.390;2022-09-28T09:59:43;461.70;128.00
55365;DHT22;41245;45.384;20.390;2022-09-28T10:02:28;486.40;128.00
55365;DHT22;41245;45.384;20.390;2022-09-28T10:12:51;486.80;128.00
55365;DHT22;41245;45.384;20.390;2022-09-28T10:15:29;486.90;128.00
55365;DHT22;41245;45.384;20.390;2022-09-28T10:17:59;487.10;128.00
55365;DHT22;41245;45.384;20.390;2022-09-28T10:20:29;487.30;128.00
55365;DHT22;41245;45.384;20.390;2022-09-28T10:22:58;487.30;128.00
55365;DHT22;41245;45.384;20.390;2022-09-28T10:25:28;487.30;128.00
55365;DHT22;41245;45.384;20.390;2022-09-28T10:27:55;487.20;128.00
55365;DHT22;41245;45.384;20.390;2022-09-28T10:30:23;487.30;128.00
55365;DHT22;41245;45.384;20.390;2022-09-28T10:32:54;512.00;128.00
55365;DHT22;41245;45.384;20.390;2022-09-28T10:35:28;487.30;128.00
55365;DHT22;41245;45.384;20.390;2022-09-28T10:43:19;512.30;128.00
55365;DHT22;41245;45.384;20.390;2022-09-28T10:45:45;512.50;128.00
55365;DHT22;41245;45.384;20.390;2022-09-28T10:48:18;512.60;128.00
55365;DHT22;41245;45.384;20.390;2022-09-28T10:51:00;512.80;128.00
55365;DHT22;41245;45.384;20.390;2022-09-28T10:53:27;512.60;128.00
55365;DHT22;41245;45.384;20.390;2022-09-28T10:56:01;512.50;128.00
55365;DHT22;41245;45.384;20.390;2022-09-28T10:58:39;512.60;128.00
55365;DHT22;41245;45.384;20.390;2022-09-28T11:01:22;512.40;128.00
55365;DHT22;41245;45.384;20.390;2022-09-28T11:04:00;512.50;128.00
55365;DHT22;41245;45.384;20.390;2022-09-28T11:06:32;512.50;128.00
55365;DHT22;41245;45.384;20.390;2022-09-28T11:09:02;512.50;128.00
55365;DHT22;41245;45.384;20.390;2022-09-28T11:11:30;512.60;128.00
55365;DHT22;41245;45.384;20.390;2022-09-28T11:14:04;512.50;128.00
55365;DHT22;41245;45.384;20.390;2022-09-28T11:16:44;512.70;128.00
55365;DHT22;41245;45.384;20.390;2022-09-28T11:21:45;512.50;128.00
55365;DHT22;41245;45.384;20.390;2022-09-28T11:26:42;512.60;128.00
55365;DHT22;41245;45.384;20.390;2022-09-28T11:29:24;512.70;128.00
55365;DHT22;41245;45.384;20.390;2022-09-28T11:31:51;512.80;128.00
55365;DHT22;41245;45.384;20.390;2022-09-28T11:34:23;512.70;128.00
55365;DHT22;41245;45.384;20.390;2022-09-28T11:40:19;512.80;128.00
55365;DHT22;41245;45.384;20.390;2022-09-28T11:48:22;512.90;128.00
55365;DHT22;41245;45.384;20.390;2022-09-28T11:51:07;537.60;128.00
55365;DHT22;41245;45.384;20.390;2022-09-28T11:53:41;537.60;128.00
55365;DHT22;41245;45.384;20.390;2022-09-28T11:56:15;537.60;128.00
55365;DHT22;41245;45.384;20.390;2022-09-28T11:58:59;537.60;128.00
55365;DHT22;41245;45.384;20.390;2022-09-28T12:01:45;537.80;128.00
55365;DHT22;41245;45.384;20.390;2022-09-28T12:06:54;538.10;128.00
55365;DHT22;41245;45.384;20.390;2022-09-28T12:09:51;538.40;128.00
55365;DHT22;41245;45.384;20.390;2022-09-28T12:15:28;537.90;128.00
55365;DHT22;41245;45.384;20.390;2022-09-28T12:18:13;537.90;128.00
55365;DHT22;41245;45.384;20.390;2022-09-28T12:20:46;538.10;128.00
55365;DHT22;41245;45.384;20.390;2022-09-28T12:23:28;538.40;128.00
55365;DHT22;41245;45.384;20.390;2022-09-28T12:26:02;563.40;128.00
55365;DHT22;41245;45.384;20.390;2022-09-28T12:28:37;563.50;128.00
55365;DHT22;41245;45.384;20.390;2022-09-28T12:34:02;563.40;128.00
55365;DHT22;41245;45.384;20.390;2022-09-28T12:47:25;563.80;128.00
55365;DHT22;41245;45.384;20.390;2022-09-28T12:53:02;563.80;128.00
55365;DHT22;41245;45.384;20.390;2022-09-28T12:55:50;563.90;128.00
55365;DHT22;41245;45.384;20.390;2022-09-28T13:04:14;564.10;128.00
55365;DHT22;41245;45.384;20.390;2022-09-28T13:09:23;564.00;128.00
55365;DHT22;41245;45.384;20.390;2022-09-28T13:12:18;563.80;128.00
55365;DHT22;41245;45.384;20.390;2022-09-28T13:15:05;563.80;128.00
55365;DHT22;41245;45.384;20.390;2022-09-28T13:22:52;563.40;128.00
55365;DHT22;41245;45.384;20.390;2022-09-28T13:25:21;563.20;128.00
55365;DHT22;41245;45.384;20.390;2022-09-28T13:28:01;563.20;128.00
55365;DHT22;41245;45.384;20.390;2022-09-28T13:30:28;563.30;128.00
55365;DHT22;41245;45.384;20.390;2022-09-28T13:32:59;563.40;128.00
55365;DHT22;41245;45.384;20.390;2022-09-28T13:35:26;563.30;128.00
55365;DHT22;41245;45.384;20.390;2022-09-28T13:49:15;563.80;128.00
55365;DHT22;41245;45.384;20.390;2022-09-28T13:54:49;563.70;128.00
55365;DHT22;41245;45.384;20.390;2022-09-28T13:57:29;563.60;128.00
55365;DHT22;41245;45.384;20.390;2022-09-28T14:00:23;563.40;128.00
55365;DHT22;41245;45.384;20.390;2022-09-28T14:03:03;563.40;128.00
55365;DHT22;41245;45.384;20.390;2022-09-28T14:06:49;563.20;128.00
55365;DHT22;41245;45.384;20.390;2022-09-28T14:11:59;563.20;128.00
55365;DHT22;41245;45.384;20.390;2022-09-28T14:20:34;538.50;128.00
55365;DHT22;41245;45.384;20.390;2022-09-28T14:25:32;563.30;128.00
55365;DHT22;41245;45.384;20.390;2022-09-28T14:30:52;563.50;128.00
55365;DHT22;41245;45.384;20.390;2022-09-28T14:33:24;563.40;128.00
55365;DHT22;41245;45.384;20.390;2022-09-28T14:38:18;563.40;128.00
55365;DHT22;41245;45.384;20.390;2022-09-28T14:41:27;563.30;128.00
55365;DHT22;41245;45.384;20.390;2022-09-28T14:47:23;563.30;128.00
55365;DHT22;41245;45.384;20.390;2022-09-28T14:49:43;563.20;128.00
55365;DHT22;41245;45.384;20.390;2022-09-28T14:52:09;563.20;128.00
55365;DHT22;41245;45.384;20.390;2022-09-28T14:54:51;563.20;128.00
55365;DHT22;41245;45.384;20.390;2022-09-28T14:57:21;563.20;128.00
55365;DHT22;41245;45.384;20.390;2022-09-28T14:59:47;538.50;128.00
55365;DHT22;41245;45.384;20.390;2022-09-28T15:02:21;538.40;128.00
55365;DHT22;41245;45.384;20.390;2022-09-28T15:04:54;538.40;128.00
55365;DHT22;41245;45.384;20.390;2022-09-28T15:07:43;538.30;128.00
55365;DHT22;41245;45.384;20.390;2022-09-28T15:12:50;538.30;128.00
55365;DHT22;41245;45.384;20.390;2022-09-28T15:15:36;538.20;128.00
55365;DHT22;41245;45.384;20.390;2022-09-28T15:20:54;538.10;128.00
55365;DHT22;41245;45.384;20.390;2022-09-28T15:23:37;538.20;128.00
55365;DHT22;41245;45.384;20.390;2022-09-28T15:26:18;538.00;128.00
55365;DHT22;41245;45.384;20.390;2022-09-28T15:28:45;537.90;128.00
55365;DHT22;41245;45.384;20.390;2022-09-28T15:31:17;537.90;128.00
55365;DHT22;41245;45.384;20.390;2022-09-28T15:33:43;537.80;128.00
55365;DHT22;41245;45.384;20.390;2022-09-28T15:41:27;537.60;128.00
55365;DHT22;41245;45.384;20.390;2022-09-28T15:46:37;512.90;128.00
55365;DHT22;41245;45.384;20.390;2022-09-28T15:49:04;512.80;128.00
55365;DHT22;41245;45.384;20.390;2022-09-28T15:51:31;512.70;128.00
55365;DHT22;41245;45.384;20.390;2022-09-28T15:54:20;512.60;128.00
55365;DHT22;41245;45.384;20.390;2022-09-28T15:56:55;512.60;128.00
55365;DHT22;41245;45.384;20.390;2022-09-28T15:59:34;512.60;128.00
55365;DHT22;41245;45.384;20.390;2022-09-28T16:02:19;512.50;128.00
55365;DHT22;41245;45.384;20.390;2022-09-28T16:07:44;512.30;128.00
55365;DHT22;41245;45.384;20.390;2022-09-28T16:12:41;512.30;128.00
55365;DHT22;41245;45.384;20.390;2022-09-28T16:20:54;512.10;128.00
55365;DHT22;41245;45.384;20.390;2022-09-28T16:23:28;512.00;128.00
55365;DHT22;41245;45.384;20.390;2022-09-28T16:26:08;487.30;128.00
55365;DHT22;41245;45.384;20.390;2022-09-28T16:31:15;487.30;128.00
55365;DHT22;41245;45.384;20.390;2022-09-28T16:36:40;487.20;128.00
55365;DHT22;41245;45.384;20.390;2022-09-28T16:39:08;487.20;128.00
55365;DHT22;41245;45.384;20.390;2022-09-28T16:41:36;487.10;128.00
55365;DHT22;41245;45.384;20.390;2022-09-28T16:44:04;487.10;128.00
55365;DHT22;41245;45.384;20.390;2022-09-28T16:46:37;487.00;128.00
55365;DHT22;41245;45.384;20.390;2022-09-28T16:49:04;487.00;128.00
55365;DHT22;41245;45.384;20.390;2022-09-28T16:51:31;486.90;128.00
55365;DHT22;41245;45.384;20.390;2022-09-28T16:54:17;486.90;128.00
55365;DHT22;41245;45.384;20.390;2022-09-28T16:57:03;486.80;128.00
55365;DHT22;41245;45.384;20.390;2022-09-28T16:59:29;486.80;128.00
55365;DHT22;41245;45.384;20.390;2022-09-28T17:01:55;486.80;128.00
55365;DHT22;41245;45.384;20.390;2022-09-28T17:04:23;486.80;128.00
55365;DHT22;41245;45.384;20.390;2022-09-28T17:06:50;486.80;128.00
55365;DHT22;41245;45.384;20.390;2022-09-28T17:09:18;486.70;128.00
55365;DHT22;41245;45.384;20.390;2022-09-28T17:11:44;486.70;128.00
55365;DHT22;41245;45.384;20.390;2022-09-28T17:14:10;486.70;128.00
55365;DHT22;41245;45.384;20.390;2022-09-28T17:16:36;486.70;128.00
55365;DHT22;41245;45.384;20.390;2022-09-28T17:19:19;486.60;128.00
55365;DHT22;41245;45.384;20.390;2022-09-28T17:21:45;486.50;128.00
55365;DHT22;41245;45.384;20.390;2022-09-28T17:24:11;486.50;128.00
55365;DHT22;41245;45.384;20.390;2022-09-28T17:26:37;486.50;128.00
55365;DHT22;41245;45.384;20.390;2022-09-28T17:29:04;486.50;128.00
55365;DHT22;41245;45.384;20.390;2022-09-28T17:31:33;486.50;128.00
55365;DHT22;41245;45.384;20.390;2022-09-28T17:33:59;461.60;128.00
55365;DHT22;41245;45.384;20.390;2022-09-28T17:36:24;486.50;128.00
55365;DHT22;41245;45.384;20.390;2022-09-28T17:38:51;486.50;128.00
55365;DHT22;41245;45.384;20.390;2022-09-28T17:41:18;486.50;128.00
55365;DHT22;41245;45.384;20.390;2022-09-28T17:43:44;486.50;128.00
55365;DHT22;41245;45.384;20.390;2022-09-28T17:48:47;486.40;128.00
55365;DHT22;41245;45.384;20.390;2022-09-28T17:51:13;486.40;128.00
55365;DHT22;41245;45.384;20.390;2022-09-28T17:53:39;486.40;128.00
55365;DHT22;41245;45.384;20.390;2022-09-28T17:56:05;486.40;128.00
55365;DHT22;41245;45.384;20.390;2022-09-28T17:58:31;486.40;128.00
55365;DHT22;41245;45.384;20.390;2022-09-28T18:00:57;486.40;128.00
55365;DHT22;41245;45.384;20.390;2022-09-28T18:03:24;486.40;128.00
55365;DHT22;41245;45.384;20.390;2022-09-28T18:06:03;486.40;128.00
55365;DHT22;41245;45.384;20.390;2022-09-28T18:08:31;486.40;128.00
55365;DHT22;41245;45.384;20.390;2022-09-28T18:10:57;486.40;128.00
55365;DHT22;41245;45.384;20.390;2022-09-28T18:13:23;487.00;128.00
55365;DHT22;41245;45.384;20.390;2022-09-28T18:15:54;486.40;128.00
55365;DHT22;41245;45.384;20.390;2022-09-28T18:18:24;486.40;128.00
55365;DHT22;41245;45.384;20.390;2022-09-28T18:20:50;461.70;128.00
55365;DHT22;41245;45.384;20.390;2022-09-28T18:23:16;486.40;128.00
55365;DHT22;41245;45.384;20.390;2022-09-28T18:25:43;461.70;128.00
55365;DHT22;41245;45.384;20.390;2022-09-28T18:28:10;461.70;128.00